Time,TemperatureF,DewpointF,PressureIn,WindDirection,WindDirectionDegrees,WindSpeedMPH,WindSpeedGustMPH,Humidity,HourlyPrecipIn,Conditions,Clouds,dailyrainin,SoftwareType,DateUTC
2013-09-19 00:00:00,48.4,45.6,30.19,West,270,0.0,0.0,90,0.00,,,0.00,VWS V14.01,2013-09-19 04:00:00,
2013-09-19 00:10:00,48.3,45.5,30.19,West,270,0.0,0.0,90,0.00,,,0.00,VWS V14.01,2013-09-19 04:10:00,
2013-09-19 00:20:00,48.0,45.5,30.19,West,270,0.0,0.0,91,0.00,,,0.00,VWS V14.01,2013-09-19 04:20:00,
2013-09-19 00:30:00,47.8,45.3,30.18,West,270,0.0,0.0,91,0.00,,,0.00,VWS V14.01,2013-09-19 04:30:00,
2013-09-19 00:40:00,47.6,45.1,30.18,West,270,0.0,0.0,91,0.00,,,0.00,VWS V14.01,2013-09-19 04:40:00,
2013-09-19 00:50:00,47.4,44.9,30.18,West,270,0.0,0.0,91,0.00,,,0.00,VWS V14.01,2013-09-19 04:50:00,
2013-09-19 01:00:00,47.3,44.8,30.19,West,270,0.0,0.0,91,0.00,,,0.00,VWS V14.01,2013-09-19 05:00:00,
2013-09-19 01:10:00,47.0,44.8,30.19,West,270,0.0,0.0,92,0.00,,,0.00,VWS V14.01,2013-09-19 05:10:00,
2013-09-19 01:20:00,46.9,44.7,30.19,West,270,0.0,0.0,92,0.00,,,0.00,VWS V14.01,2013-09-19 05:20:00,
2013-09-19 01:30:00,46.8,44.6,30.19,West,270,0.0,0.0,92,0.00,,,0.00,VWS V14.01,2013-09-19 05:30:00,
2013-09-19 01:40:00,46.7,44.5,30.19,West,270,0.0,0.0,92,0.00,,,0.00,VWS V14.01,2013-09-19 05:40:00,
2013-09-19 01:50:00,46.5,44.3,30.18,West,270,0.0,0.0,92,0.00,,,0.00,VWS V14.01,2013-09-19 05:50:00,
2013-09-19 02:00:00,46.5,44.3,30.18,West,270,0.0,0.0,92,0.00,,,0.00,VWS V14.01,2013-09-19 06:00:00,
2013-09-19 02:10:00,46.3,44.4,30.18,West,270,0.0,0.0,93,0.00,,,0.00,VWS V14.01,2013-09-19 06:10:00,
2013-09-19 02:20:00,46.1,44.2,30.18,West,270,0.0,0.0,93,0.00,,,0.00,VWS V14.01,2013-09-19 06:20:00,
2013-09-19 02:30:00,46.1,44.2,30.18,West,270,0.0,0.0,93,0.00,,,0.00,VWS V14.01,2013-09-19 06:30:00,
2013-09-19 02:40:00,46.0,44.1,30.18,West,270,0.0,0.0,93,0.00,,,0.00,VWS V14.01,2013-09-19 06:40:00,
2013-09-19 02:50:00,45.8,43.9,30.17,West,270,0.0,0.0,93,0.00,,,0.00,VWS V14.01,2013-09-19 06:50:00,
2013-09-19 03:00:00,45.7,43.8,30.17,West,270,0.0,0.0,93,0.00,,,0.00,VWS V14.01,2013-09-19 07:00:00,
2013-09-19 03:10:00,45.6,43.7,30.17,West,270,0.0,0.0,93,0.00,,,0.00,VWS V14.01,2013-09-19 07:10:00,
2013-09-19 03:20:00,45.5,43.6,30.17,West,270,0.0,0.0,93,0.00,,,0.00,VWS V14.01,2013-09-19 07:20:00,
2013-09-19 03:30:00,45.4,43.5,30.17,West,270,0.0,0.0,93,0.00,,,0.00,VWS V14.01,2013-09-19 07:30:00,
2013-09-19 03:40:00,45.3,43.7,30.17,West,270,0.0,0.0,94,0.00,,,0.00,VWS V14.01,2013-09-19 07:40:00,
2013-09-19 03:50:00,45.2,43.6,30.17,West,270,0.0,0.0,94,0.00,,,0.00,VWS V14.01,2013-09-19 07:50:00,
2013-09-19 04:00:00,45.2,43.6,30.17,West,270,0.0,0.0,94,0.00,,,0.00,VWS V14.01,2013-09-19 08:00:00,
2013-09-19 04:10:00,45.1,43.5,30.17,West,270,0.0,0.0,94,0.00,,,0.00,VWS V14.01,2013-09-19 08:10:00,
2013-09-19 04:20:00,45.1,43.5,30.17,West,270,0.0,0.0,94,0.00,,,0.00,VWS V14.01,2013-09-19 08:20:00,
2013-09-19 04:30:00,45.0,43.4,30.16,West,270,0.0,0.0,94,0.00,,,0.00,VWS V14.01,2013-09-19 08:30:00,
2013-09-19 04:40:00,44.9,43.3,30.16,West,270,0.0,0.0,94,0.00,,,0.00,VWS V14.01,2013-09-19 08:40:00,
2013-09-19 04:50:00,44.9,43.3,30.16,West,270,0.0,0.0,94,0.00,,,0.00,VWS V14.01,2013-09-19 08:50:00,
2013-09-19 05:00:00,44.8,43.2,30.16,West,270,0.0,0.0,94,0.00,,,0.00,VWS V14.01,2013-09-19 09:00:00,
2013-09-19 05:10:00,44.8,43.2,30.16,West,270,0.0,0.0,94,0.00,,,0.00,VWS V14.01,2013-09-19 09:10:00,
2013-09-19 05:20:00,44.7,43.1,30.16,West,270,0.0,0.0,94,0.00,,,0.00,VWS V14.01,2013-09-19 09:20:00,
2013-09-19 05:30:00,44.7,43.1,30.16,West,270,0.0,0.0,94,0.00,,,0.00,VWS V14.01,2013-09-19 09:30:00,
2013-09-19 05:40:00,44.6,43.0,30.16,West,270,0.0,0.0,94,0.00,,,0.00,VWS V14.01,2013-09-19 09:40:00,
2013-09-19 05:50:00,44.5,42.9,30.16,West,270,0.0,0.0,94,0.00,,,0.00,VWS V14.01,2013-09-19 09:50:00,
2013-09-19 06:00:00,44.5,42.9,30.16,West,270,0.0,0.0,94,0.00,,,0.00,VWS V14.01,2013-09-19 10:00:00,
2013-09-19 06:10:00,44.5,42.9,30.16,West,270,0.0,0.0,94,0.00,,,0.00,VWS V14.01,2013-09-19 10:10:00,
2013-09-19 06:20:00,44.5,42.9,30.16,West,270,0.0,0.0,94,0.00,,,0.00,VWS V14.01,2013-09-19 10:20:00,
2013-09-19 06:30:00,44.4,42.8,30.16,West,270,0.0,0.0,94,0.00,,,0.00,VWS V14.01,2013-09-19 10:30:00,
2013-09-19 06:40:00,44.3,42.7,30.16,West,270,0.0,0.0,94,0.00,,,0.00,VWS V14.01,2013-09-19 10:40:00,
2013-09-19 06:50:00,44.2,42.6,30.17,West,270,0.0,0.0,94,0.00,,,0.00,VWS V14.01,2013-09-19 10:50:00,
2013-09-19 07:00:00,44.2,42.6,30.17,West,270,0.0,0.0,94,0.00,,,0.00,VWS V14.01,2013-09-19 11:00:00,
2013-09-19 07:10:00,44.2,42.6,30.17,West,270,0.0,0.0,94,0.00,,,0.00,VWS V14.01,2013-09-19 11:10:00,
2013-09-19 07:20:00,44.2,42.6,30.17,West,270,0.0,0.0,94,0.00,,,0.00,VWS V14.01,2013-09-19 11:20:00,
2013-09-19 07:30:00,44.4,43.1,30.17,West,270,0.0,0.0,95,0.00,,,0.00,VWS V14.01,2013-09-19 11:30:00,
2013-09-19 07:40:00,44.6,43.3,30.17,West,270,0.0,0.0,95,0.00,,,0.00,VWS V14.01,2013-09-19 11:40:00,
2013-09-19 07:50:00,44.9,43.6,30.17,West,270,0.0,0.0,95,0.00,,,0.00,VWS V14.01,2013-09-19 11:50:00,
2013-09-19 08:00:00,45.2,43.9,30.17,West,270,0.0,0.0,95,0.00,,,0.00,VWS V14.01,2013-09-19 12:00:00,
2013-09-19 08:10:00,45.6,44.2,30.17,West,270,0.0,0.0,95,0.00,,,0.00,VWS V14.01,2013-09-19 12:10:00,
2013-09-19 08:20:00,46.2,45.1,30.16,West,270,0.0,0.0,96,0.00,,,0.00,VWS V14.01,2013-09-19 12:20:00,
2013-09-19 08:30:00,47.1,46.0,30.17,West,270,0.0,0.0,96,0.00,,,0.00,VWS V14.01,2013-09-19 12:30:00,
2013-09-19 08:40:00,47.9,46.8,30.17,West,270,0.0,2.0,96,0.00,,,0.00,VWS V14.01,2013-09-19 12:40:00,
2013-09-19 08:50:00,48.9,47.8,30.17,West,270,0.0,1.0,96,0.00,,,0.00,VWS V14.01,2013-09-19 12:50:00,
2013-09-19 09:00:00,49.8,48.7,30.17,WNW,292,0.0,1.0,96,0.00,,,0.00,VWS V14.01,2013-09-19 13:00:00,
2013-09-19 09:10:00,50.5,49.4,30.17,North,0,0.0,2.0,96,0.00,,,0.00,VWS V14.01,2013-09-19 13:10:00,
2013-09-19 09:20:00,51.0,49.9,30.17,NNW,338,0.0,3.0,96,0.00,,,0.00,VWS V14.01,2013-09-19 13:20:00,
2013-09-19 09:30:00,52.1,50.7,30.17,NW,315,0.0,4.0,95,0.00,,,0.00,VWS V14.01,2013-09-19 13:30:00,
2013-09-19 09:40:00,53.8,52.1,30.17,NW,315,0.0,3.0,94,0.00,,,0.00,VWS V14.01,2013-09-19 13:40:00,
2013-09-19 09:50:00,55.3,52.7,30.17,NW,315,0.0,3.0,91,0.00,,,0.00,VWS V14.01,2013-09-19 13:50:00,
2013-09-19 10:00:00,57.4,53.2,30.17,NW,315,0.0,2.0,86,0.00,,,0.00,VWS V14.01,2013-09-19 14:00:00,
2013-09-19 10:10:00,59.4,52.5,30.17,ENE,68,0.0,3.0,78,0.00,,,0.00,VWS V14.01,2013-09-19 14:10:00,
2013-09-19 10:20:00,61.5,52.8,30.16,ENE,68,0.0,1.0,73,0.00,,,0.00,VWS V14.01,2013-09-19 14:20:00,
2013-09-19 10:30:00,63.3,52.2,30.16,NW,315,0.0,3.0,67,0.00,,,0.00,VWS V14.01,2013-09-19 14:30:00,
2013-09-19 10:40:00,64.3,52.3,30.16,NW,315,0.0,3.0,65,0.00,,,0.00,VWS V14.01,2013-09-19 14:40:00,
2013-09-19 10:50:00,64.9,52.9,30.15,West,270,1.0,5.0,65,0.00,,,0.00,VWS V14.01,2013-09-19 14:50:00,
2013-09-19 11:00:00,65.9,52.1,30.16,WNW,292,1.0,7.0,61,0.00,,,0.00,VWS V14.01,2013-09-19 15:00:00,
2013-09-19 11:10:00,67.1,52.8,30.16,NW,315,1.0,5.0,60,0.00,,,0.00,VWS V14.01,2013-09-19 15:10:00,
2013-09-19 11:20:00,67.7,51.5,30.16,West,270,1.0,5.0,56,0.00,,,0.00,VWS V14.01,2013-09-19 15:20:00,
2013-09-19 11:30:00,68.4,52.1,30.15,WNW,292,1.0,5.0,56,0.00,,,0.00,VWS V14.01,2013-09-19 15:30:00,
2013-09-19 11:40:00,68.6,51.8,30.15,East,90,1.0,3.0,55,0.00,,,0.00,VWS V14.01,2013-09-19 15:40:00,
2013-09-19 11:50:00,68.8,50.5,30.15,NNW,338,0.0,3.0,52,0.00,,,0.00,VWS V14.01,2013-09-19 15:50:00,
2013-09-19 12:00:00,69.1,51.8,30.15,WSW,248,0.0,3.0,54,0.00,,,0.00,VWS V14.01,2013-09-19 16:00:00,
2013-09-19 12:10:00,69.2,49.8,30.15,NW,315,1.0,5.0,50,0.00,,,0.00,VWS V14.01,2013-09-19 16:10:00,
2013-09-19 12:20:00,68.6,51.3,30.15,WNW,292,1.0,5.0,54,0.00,,,0.00,VWS V14.01,2013-09-19 16:20:00,
2013-09-19 12:30:00,68.3,51.0,30.14,WNW,292,1.0,4.0,54,0.00,,,0.00,VWS V14.01,2013-09-19 16:30:00,
2013-09-19 12:40:00,68.6,52.3,30.14,SE,135,1.0,3.0,56,0.00,,,0.00,VWS V14.01,2013-09-19 16:40:00,
2013-09-19 12:50:00,68.5,50.2,30.15,West,270,1.0,6.0,52,0.00,,,0.00,VWS V14.01,2013-09-19 16:50:00,
2013-09-19 13:00:00,68.4,51.1,30.14,West,270,1.0,6.0,54,0.00,,,0.00,VWS V14.01,2013-09-19 17:00:00,
2013-09-19 13:10:00,68.6,51.3,30.14,WNW,292,0.0,3.0,54,0.00,,,0.00,VWS V14.01,2013-09-19 17:10:00,
2013-09-19 13:20:00,68.6,51.3,30.13,WSW,248,1.0,3.0,54,0.00,,,0.00,VWS V14.01,2013-09-19 17:20:00,
2013-09-19 13:30:00,68.6,50.8,30.13,West,270,1.0,5.0,53,0.00,,,0.00,VWS V14.01,2013-09-19 17:30:00,
2013-09-19 13:40:00,68.7,51.4,30.13,WNW,292,1.0,5.0,54,0.00,,,0.00,VWS V14.01,2013-09-19 17:40:00,
2013-09-19 13:50:00,68.8,51.5,30.12,WSW,248,0.0,4.0,54,0.00,,,0.00,VWS V14.01,2013-09-19 17:50:00,
2013-09-19 14:00:00,69.0,51.7,30.11,NW,315,0.0,5.0,54,0.00,,,0.00,VWS V14.01,2013-09-19 18:00:00,
2013-09-19 14:10:00,69.2,50.8,30.11,NW,315,1.0,5.0,52,0.00,,,0.00,VWS V14.01,2013-09-19 18:10:00,
2013-09-19 14:20:00,69.3,51.5,30.11,SE,135,0.0,3.0,53,0.00,,,0.00,VWS V14.01,2013-09-19 18:20:00,
2013-09-19 14:30:00,69.3,50.4,30.10,SE,135,0.0,3.0,51,0.00,,,0.00,VWS V14.01,2013-09-19 18:30:00,
2013-09-19 14:40:00,69.4,48.3,30.10,SE,135,0.0,2.0,47,0.00,,,0.00,VWS V14.01,2013-09-19 18:40:00,
2013-09-19 14:50:00,69.5,50.1,30.10,SSE,158,1.0,4.0,50,0.00,,,0.00,VWS V14.01,2013-09-19 18:50:00,
2013-09-19 15:00:00,69.7,50.8,30.10,NW,315,0.0,4.0,51,0.00,,,0.00,VWS V14.01,2013-09-19 19:00:00,
2013-09-19 15:10:00,69.8,51.4,30.10,SE,135,0.0,3.0,52,0.00,,,0.00,VWS V14.01,2013-09-19 19:10:00,
2013-09-19 15:20:00,69.9,50.4,30.10,SE,135,0.0,2.0,50,0.00,,,0.00,VWS V14.01,2013-09-19 19:20:00,
2013-09-19 15:30:00,70.0,50.5,30.09,SW,225,0.0,3.0,50,0.00,,,0.00,VWS V14.01,2013-09-19 19:30:00,
2013-09-19 15:40:00,70.3,50.8,30.09,SSW,202,0.0,4.0,50,0.00,,,0.00,VWS V14.01,2013-09-19 19:40:00,
2013-09-19 15:50:00,70.4,49.8,30.08,WNW,292,1.0,7.0,48,0.00,,,0.00,VWS V14.01,2013-09-19 19:50:00,
2013-09-19 16:00:00,70.6,49.4,30.08,WNW,292,0.0,3.0,47,0.00,,,0.00,VWS V14.01,2013-09-19 20:00:00,
2013-09-19 16:10:00,70.9,49.7,30.08,NW,315,1.0,3.0,47,0.00,,,0.00,VWS V14.01,2013-09-19 20:10:00,
2013-09-19 16:20:00,70.9,50.8,30.08,NW,315,0.0,5.0,49,0.00,,,0.00,VWS V14.01,2013-09-19 20:20:00,
2013-09-19 16:30:00,70.8,51.8,30.08,SSW,202,1.0,3.0,51,0.00,,,0.00,VWS V14.01,2013-09-19 20:30:00,
2013-09-19 16:40:00,71.0,53.0,30.08,WSW,248,0.0,4.0,53,0.00,,,0.00,VWS V14.01,2013-09-19 20:40:00,
2013-09-19 16:50:00,71.4,52.9,30.08,WSW,248,0.0,2.0,52,0.00,,,0.00,VWS V14.01,2013-09-19 20:50:00,
2013-09-19 17:00:00,72.2,52.5,30.08,WSW,248,0.0,4.0,50,0.00,,,0.00,VWS V14.01,2013-09-19 21:00:00,
2013-09-19 17:10:00,72.8,52.5,30.08,West,270,1.0,5.0,49,0.00,,,0.00,VWS V14.01,2013-09-19 21:10:00,
2013-09-19 17:20:00,73.1,52.3,30.08,WNW,292,0.0,3.0,48,0.00,,,0.00,VWS V14.01,2013-09-19 21:20:00,
2013-09-19 17:30:00,72.9,51.5,30.08,WNW,292,0.0,3.0,47,0.00,,,0.00,VWS V14.01,2013-09-19 21:30:00,
2013-09-19 17:40:00,73.0,51.6,30.08,WNW,292,0.0,4.0,47,0.00,,,0.00,VWS V14.01,2013-09-19 21:40:00,
2013-09-19 17:50:00,72.5,53.4,30.08,West,270,0.0,3.0,51,0.00,,,0.00,VWS V14.01,2013-09-19 21:50:00,
2013-09-19 18:00:00,71.9,53.3,30.08,West,270,0.0,1.0,52,0.00,,,0.00,VWS V14.01,2013-09-19 22:00:00,
2013-09-19 18:10:00,71.1,53.6,30.08,West,270,0.0,0.0,54,0.00,,,0.00,VWS V14.01,2013-09-19 22:10:00,
2013-09-19 18:20:00,70.0,53.6,30.08,West,270,0.0,0.0,56,0.00,,,0.00,VWS V14.01,2013-09-19 22:20:00,
2013-09-19 18:30:00,68.9,53.5,30.08,West,270,0.0,0.0,58,0.00,,,0.00,VWS V14.01,2013-09-19 22:30:00,
2013-09-19 18:40:00,67.8,53.9,30.08,West,270,0.0,0.0,61,0.00,,,0.00,VWS V14.01,2013-09-19 22:40:00,
2013-09-19 18:50:00,66.7,53.7,30.08,West,270,0.0,0.0,63,0.00,,,0.00,VWS V14.01,2013-09-19 22:50:00,
2013-09-19 19:00:00,65.4,53.8,30.08,West,270,0.0,0.0,66,0.00,,,0.00,VWS V14.01,2013-09-19 23:00:00,
2013-09-19 19:10:00,64.1,53.3,30.08,West,270,0.0,0.0,68,0.00,,,0.00,VWS V14.01,2013-09-19 23:10:00,
2013-09-19 19:20:00,62.7,53.2,30.08,West,270,0.0,0.0,71,0.00,,,0.00,VWS V14.01,2013-09-19 23:20:00,
2013-09-19 19:30:00,61.7,53.3,30.09,West,270,0.0,0.0,74,0.00,,,0.00,VWS V14.01,2013-09-19 23:30:00,
2013-09-19 19:40:00,60.6,53.0,30.09,West,270,0.0,0.0,76,0.00,,,0.00,VWS V14.01,2013-09-19 23:40:00,
2013-09-19 19:50:00,59.8,53.3,30.10,West,270,0.0,0.0,79,0.00,,,0.00,VWS V14.01,2013-09-19 23:50:00,
2013-09-19 20:00:00,59.0,53.2,30.10,West,270,0.0,0.0,81,0.00,,,0.00,VWS V14.01,2013-09-20 00:00:00,
2013-09-19 20:10:00,58.4,52.9,30.10,West,270,0.0,0.0,82,0.00,,,0.00,VWS V14.01,2013-09-20 00:10:00,
2013-09-19 20:20:00,57.9,52.8,30.10,West,270,0.0,0.0,83,0.00,,,0.00,VWS V14.01,2013-09-20 00:20:00,
2013-09-19 20:30:00,57.3,52.8,30.10,West,270,0.0,0.0,85,0.00,,,0.00,VWS V14.01,2013-09-20 00:30:00,
2013-09-19 20:40:00,56.9,52.8,30.10,West,270,0.0,0.0,86,0.00,,,0.00,VWS V14.01,2013-09-20 00:40:00,
2013-09-19 20:50:00,56.5,52.4,30.10,West,270,0.0,0.0,86,0.00,,,0.00,VWS V14.01,2013-09-20 00:50:00,
2013-09-19 21:00:00,56.1,52.3,30.10,West,270,0.0,0.0,87,0.00,,,0.00,VWS V14.01,2013-09-20 01:00:00,
2013-09-19 21:10:00,55.8,52.3,30.10,West,270,0.0,0.0,88,0.00,,,0.00,VWS V14.01,2013-09-20 01:10:00,
2013-09-19 21:20:00,55.5,52.3,30.10,West,270,0.0,0.0,89,0.00,,,0.00,VWS V14.01,2013-09-20 01:20:00,
2013-09-19 21:30:00,55.3,52.1,30.10,West,270,0.0,0.0,89,0.00,,,0.00,VWS V14.01,2013-09-20 01:30:00,
2013-09-19 21:40:00,55.0,51.8,30.10,West,270,0.0,0.0,89,0.00,,,0.00,VWS V14.01,2013-09-20 01:40:00,
2013-09-19 21:50:00,54.7,51.5,30.10,West,270,0.0,0.0,89,0.00,,,0.00,VWS V14.01,2013-09-20 01:50:00,
2013-09-19 22:00:00,54.5,51.6,30.10,West,270,0.0,0.0,90,0.00,,,0.00,VWS V14.01,2013-09-20 02:00:00,
2013-09-19 22:10:00,54.2,51.3,30.10,West,270,0.0,0.0,90,0.00,,,0.00,VWS V14.01,2013-09-20 02:10:00,
2013-09-19 22:20:00,54.0,51.1,30.09,West,270,0.0,0.0,90,0.00,,,0.00,VWS V14.01,2013-09-20 02:20:00,
2013-09-19 22:30:00,53.8,51.2,30.09,West,270,0.0,0.0,91,0.00,,,0.00,VWS V14.01,2013-09-20 02:30:00,
2013-09-19 22:40:00,53.6,51.0,30.09,West,270,0.0,0.0,91,0.00,,,0.00,VWS V14.01,2013-09-20 02:40:00,
2013-09-19 22:50:00,53.5,50.9,30.09,West,270,0.0,0.0,91,0.00,,,0.00,VWS V14.01,2013-09-20 02:50:00,
2013-09-19 23:00:00,53.3,50.7,30.08,West,270,0.0,0.0,91,0.00,,,0.00,VWS V14.01,2013-09-20 03:00:00,
2013-09-19 23:10:00,53.1,50.5,30.08,West,270,0.0,0.0,91,0.00,,,0.00,VWS V14.01,2013-09-20 03:10:00,
2013-09-19 23:29:00,53.1,50.5,30.08,West,270,0.0,0.0,91,0.00,,,0.00,VWS V14.01,2013-09-20 03:29:00,
2013-09-19 23:30:00,52.7,50.5,30.08,West,275,0.0,0.0,92,0.00,,,0.00,VWS V14.01,2013-09-20 03:30:00,
2013-09-19 23:34:00,52.6,50.3,30.08,West,275,0.0,0.0,92,0.00,,,0.00,VWS V14.01,2013-09-20 03:34:00,
2013-09-19 23:39:00,52.6,50.3,30.08,West,275,0.0,0.0,92,0.00,,,0.00,VWS V14.01,2013-09-20 03:39:00,
2013-09-19 23:40:00,52.6,50.3,30.08,West,275,0.0,0.0,92,0.00,,,0.00,VWS V14.01,2013-09-20 03:40:00,
2013-09-19 23:44:00,52.5,50.2,30.08,West,275,0.0,0.0,92,0.00,,,0.00,VWS V14.01,2013-09-20 03:44:00,
2013-09-19 23:49:00,52.4,50.2,30.08,West,275,0.0,0.0,92,0.00,,,0.00,VWS V14.01,2013-09-20 03:49:00,
2013-09-19 23:54:00,52.4,50.2,30.08,West,275,0.0,0.0,92,0.00,,,0.00,VWS V14.01,2013-09-20 03:54:00,